sensor_id;sensor_type;location;lat;lon;timestamp;pressure;altitude;pressure_sealevel;temperature
14023;BMP180;7086;48.116;11.580;2023-06-14T00:02:15;94874.00;;;19.30
14023;BMP180;7086;48.116;11.580;2023-06-14T00:04:42;94885.00;;;19.10
14023;BMP180;7086;48.116;11.580;2023-06-14T00:07:08;94877.00;;;19.20
14023;BMP180;7086;48.116;11.580;2023-06-14T00:09:35;94878.00;;;19.10
14023;BMP180;7086;48.116;11.580;2023-06-14T00:12:04;94848.00;;;19.10
14023;BMP180;7086;48.116;11.580;2023-06-14T00:14:31;94879.00;;;19.10
14023;BMP180;7086;48.116;11.580;2023-06-14T00:16:58;94861.00;;;19.10
14023;BMP180;7086;48.116;11.580;2023-06-14T00:19:25;94880.00;;;19.00
14023;BMP180;7086;48.116;11.580;2023-06-14T00:21:52;94849.00;;;19.00
14023;BMP180;7086;48.116;11.580;2023-06-14T00:24:19;94868.00;;;19.00
14023;BMP180;7086;48.116;11.580;2023-06-14T00:26:47;94876.00;;;18.90
14023;BMP180;7086;48.116;11.580;2023-06-14T00:29:15;94852.00;;;18.90
14023;BMP180;7086;48.116;11.580;2023-06-14T00:31:42;94885.00;;;18.80
14023;BMP180;7086;48.116;11.580;2023-06-14T00:34:09;94866.00;;;18.80
14023;BMP180;7086;48.116;11.580;2023-06-14T00:36:36;94870.00;;;18.70
14023;BMP180;7086;48.116;11.580;2023-06-14T00:39:02;94845.00;;;18.70
14023;BMP180;7086;48.116;11.580;2023-06-14T00:41:30;94871.00;;;18.70
14023;BMP180;7086;48.116;11.580;2023-06-14T00:43:57;94869.00;;;18.60
14023;BMP180;7086;48.116;11.580;2023-06-14T00:46:26;94867.00;;;18.60
14023;BMP180;7086;48.116;11.580;2023-06-14T00:48:53;94857.00;;;18.60
14023;BMP180;7086;48.116;11.580;2023-06-14T00:51:21;94849.00;;;18.50
14023;BMP180;7086;48.116;11.580;2023-06-14T00:53:48;94876.00;;;18.50
14023;BMP180;7086;48.116;11.580;2023-06-14T00:56:15;94835.00;;;18.40
14023;BMP180;7086;48.116;11.580;2023-06-14T00:58:43;94847.00;;;18.40
14023;BMP180;7086;48.116;11.580;2023-06-14T01:01:11;94868.00;;;18.40
14023;BMP180;7086;48.116;11.580;2023-06-14T01:03:39;94876.00;;;18.30
14023;BMP180;7086;48.116;11.580;2023-06-14T01:06:15;94863.00;;;18.30
14023;BMP180;7086;48.116;11.580;2023-06-14T01:09:00;94872.00;;;18.30
14023;BMP180;7086;48.116;11.580;2023-06-14T01:11:31;94848.00;;;18.20
14023;BMP180;7086;48.116;11.580;2023-06-14T01:14:01;94876.00;;;18.20
14023;BMP180;7086;48.116;11.580;2023-06-14T01:16:29;94803.00;;;18.10
14023;BMP180;7086;48.116;11.580;2023-06-14T01:18:59;94838.00;;;18.10
14023;BMP180;7086;48.116;11.580;2023-06-14T01:21:27;94872.00;;;17.80
14023;BMP180;7086;48.116;11.580;2023-06-14T01:23:56;94877.00;;;18.00
14023;BMP180;7086;48.116;11.580;2023-06-14T01:26:24;94878.00;;;18.00
14023;BMP180;7086;48.116;11.580;2023-06-14T01:28:54;94851.00;;;18.00
14023;BMP180;7086;48.116;11.580;2023-06-14T01:31:24;94869.00;;;18.00
14023;BMP180;7086;48.116;11.580;2023-06-14T01:33:51;94835.00;;;17.90
14023;BMP180;7086;48.116;11.580;2023-06-14T01:36:19;94856.00;;;17.90
14023;BMP180;7086;48.116;11.580;2023-06-14T01:38:46;94849.00;;;17.80
14023;BMP180;7086;48.116;11.580;2023-06-14T01:41:17;94823.00;;;17.90
14023;BMP180;7086;48.116;11.580;2023-06-14T01:43:45;94853.00;;;17.80
14023;BMP180;7086;48.116;11.580;2023-06-14T01:46:13;94871.00;;;17.80
14023;BMP180;7086;48.116;11.580;2023-06-14T01:48:41;94857.00;;;17.70
14023;BMP180;7086;48.116;11.580;2023-06-14T01:51:08;94858.00;;;17.80
14023;BMP180;7086;48.116;11.580;2023-06-14T01:53:35;94842.00;;;17.80
14023;BMP180;7086;48.116;11.580;2023-06-14T01:56:02;94822.00;;;17.80
14023;BMP180;7086;48.116;11.580;2023-06-14T01:58:30;94850.00;;;17.70
14023;BMP180;7086;48.116;11.580;2023-06-14T02:00:58;94803.00;;;17.70
14023;BMP180;7086;48.116;11.580;2023-06-14T02:03:26;94807.00;;;17.70
14023;BMP180;7086;48.116;11.580;2023-06-14T02:05:53;94788.00;;;17.70
14023;BMP180;7086;48.116;11.580;2023-06-14T02:08:20;94829.00;;;17.60
14023;BMP180;7086;48.116;11.580;2023-06-14T02:10:47;94817.00;;;17.60
14023;BMP180;7086;48.116;11.580;2023-06-14T02:13:14;94840.00;;;17.60
14023;BMP180;7086;48.116;11.580;2023-06-14T02:15:42;94861.00;;;17.60
14023;BMP180;7086;48.116;11.580;2023-06-14T02:18:10;94839.00;;;17.50
14023;BMP180;7086;48.116;11.580;2023-06-14T02:20:37;94822.00;;;17.50
14023;BMP180;7086;48.116;11.580;2023-06-14T02:23:04;94807.00;;;17.50
14023;BMP180;7086;48.116;11.580;2023-06-14T02:25:33;94849.00;;;17.50
14023;BMP180;7086;48.116;11.580;2023-06-14T02:27:59;94843.00;;;17.40
14023;BMP180;7086;48.116;11.580;2023-06-14T02:30:26;94842.00;;;17.40
14023;BMP180;7086;48.116;11.580;2023-06-14T02:32:55;94844.00;;;17.40
14023;BMP180;7086;48.116;11.580;2023-06-14T02:35:22;94850.00;;;17.30
14023;BMP180;7086;48.116;11.580;2023-06-14T02:37:51;94804.00;;;17.30
14023;BMP180;7086;48.116;11.580;2023-06-14T02:40:18;94839.00;;;17.30
14023;BMP180;7086;48.116;11.580;2023-06-14T02:42:45;94810.00;;;17.30
14023;BMP180;7086;48.116;11.580;2023-06-14T02:45:12;94846.00;;;17.30
14023;BMP180;7086;48.116;11.580;2023-06-14T02:47:39;94844.00;;;17.30
14023;BMP180;7086;48.116;11.580;2023-06-14T02:50:08;94843.00;;;17.20
14023;BMP180;7086;48.116;11.580;2023-06-14T02:52:35;94848.00;;;17.30
14023;BMP180;7086;48.116;11.580;2023-06-14T02:55:02;94852.00;;;17.30
14023;BMP180;7086;48.116;11.580;2023-06-14T02:57:29;94845.00;;;17.30
14023;BMP180;7086;48.116;11.580;2023-06-14T02:59:56;94853.00;;;17.30
14023;BMP180;7086;48.116;11.580;2023-06-14T03:02:22;94851.00;;;17.30
14023;BMP180;7086;48.116;11.580;2023-06-14T03:04:49;94807.00;;;17.40
14023;BMP180;7086;48.116;11.580;2023-06-14T03:07:17;94844.00;;;17.40
14023;BMP180;7086;48.116;11.580;2023-06-14T03:09:45;94853.00;;;17.40
14023;BMP180;7086;48.116;11.580;2023-06-14T03:12:12;94850.00;;;17.40
14023;BMP180;7086;48.116;11.580;2023-06-14T03:14:40;94860.00;;;17.40
14023;BMP180;7086;48.116;11.580;2023-06-14T03:17:07;94854.00;;;17.40
14023;BMP180;7086;48.116;11.580;2023-06-14T03:19:35;94863.00;;;17.50
14023;BMP180;7086;48.116;11.580;2023-06-14T03:22:02;94864.00;;;17.50
14023;BMP180;7086;48.116;11.580;2023-06-14T03:24:30;94860.00;;;17.50
14023;BMP180;7086;48.116;11.580;2023-06-14T03:27:02;94865.00;;;17.50
14023;BMP180;7086;48.116;11.580;2023-06-14T03:29:29;94872.00;;;17.50
14023;BMP180;7086;48.116;11.580;2023-06-14T03:31:57;94870.00;;;17.50
14023;BMP180;7086;48.116;11.580;2023-06-14T03:34:24;94872.00;;;17.50
14023;BMP180;7086;48.116;11.580;2023-06-14T03:36:51;94875.00;;;17.50
14023;BMP180;7086;48.116;11.580;2023-06-14T03:39:18;94875.00;;;17.50
14023;BMP180;7086;48.116;11.580;2023-06-14T03:41:46;94871.00;;;17.50
14023;BMP180;7086;48.116;11.580;2023-06-14T03:44:15;94847.00;;;17.50
14023;BMP180;7086;48.116;11.580;2023-06-14T03:46:42;94868.00;;;17.50
14023;BMP180;7086;48.116;11.580;2023-06-14T03:49:09;94872.00;;;17.50
14023;BMP180;7086;48.116;11.580;2023-06-14T03:51:36;94870.00;;;17.60
14023;BMP180;7086;48.116;11.580;2023-06-14T03:54:03;94871.00;;;17.70
14023;BMP180;7086;48.116;11.580;2023-06-14T03:56:30;94876.00;;;17.80
14023;BMP180;7086;48.116;11.580;2023-06-14T03:58:58;94887.00;;;18.00
14023;BMP180;7086;48.116;11.580;2023-06-14T04:01:25;94899.00;;;18.20
14023;BMP180;7086;48.116;11.580;2023-06-14T04:03:55;94894.00;;;18.40
14023;BMP180;7086;48.116;11.580;2023-06-14T04:06:22;94892.00;;;18.50
14023;BMP180;7086;48.116;11.580;2023-06-14T04:08:50;94896.00;;;18.60
14023;BMP180;7086;48.116;11.580;2023-06-14T04:11:17;94896.00;;;18.60
14023;BMP180;7086;48.116;11.580;2023-06-14T04:13:44;94892.00;;;18.70
14023;BMP180;7086;48.116;11.580;2023-06-14T04:16:13;94911.00;;;18.70
14023;BMP180;7086;48.116;11.580;2023-06-14T04:18:40;94918.00;;;18.80
14023;BMP180;7086;48.116;11.580;2023-06-14T04:21:07;94915.00;;;18.80
14023;BMP180;7086;48.116;11.580;2023-06-14T04:23:34;94932.00;;;18.80
14023;BMP180;7086;48.116;11.580;2023-06-14T04:26:01;94924.00;;;18.80
14023;BMP180;7086;48.116;11.580;2023-06-14T04:28:28;94905.00;;;18.80
14023;BMP180;7086;48.116;11.580;2023-06-14T04:30:55;94884.00;;;18.70
14023;BMP180;7086;48.116;11.580;2023-06-14T04:33:23;94929.00;;;18.70
14023;BMP180;7086;48.116;11.580;2023-06-14T04:35:51;94921.00;;;18.70
14023;BMP180;7086;48.116;11.580;2023-06-14T04:38:19;94925.00;;;18.70
14023;BMP180;7086;48.116;11.580;2023-06-14T04:40:51;94930.00;;;18.70
14023;BMP180;7086;48.116;11.580;2023-06-14T04:43:18;94931.00;;;18.70
14023;BMP180;7086;48.116;11.580;2023-06-14T04:45:52;94927.00;;;18.70
14023;BMP180;7086;48.116;11.580;2023-06-14T04:48:20;94926.00;;;18.70
14023;BMP180;7086;48.116;11.580;2023-06-14T04:50:49;94934.00;;;18.70
14023;BMP180;7086;48.116;11.580;2023-06-14T04:53:18;94930.00;;;18.70
14023;BMP180;7086;48.116;11.580;2023-06-14T04:55:47;94934.00;;;18.70
14023;BMP180;7086;48.116;11.580;2023-06-14T04:58:13;94901.00;;;18.70
14023;BMP180;7086;48.116;11.580;2023-06-14T05:00:40;94935.00;;;18.80
14023;BMP180;7086;48.116;11.580;2023-06-14T05:03:08;94936.00;;;18.80
14023;BMP180;7086;48.116;11.580;2023-06-14T05:05:39;94938.00;;;18.90
14023;BMP180;7086;48.116;11.580;2023-06-14T05:08:07;94947.00;;;18.80
14023;BMP180;7086;48.116;11.580;2023-06-14T05:10:37;94950.00;;;18.90
14023;BMP180;7086;48.116;11.580;2023-06-14T05:13:04;94940.00;;;18.90
14023;BMP180;7086;48.116;11.580;2023-06-14T05:15:31;94949.00;;;18.90
14023;BMP180;7086;48.116;11.580;2023-06-14T05:17:57;94948.00;;;19.00
14023;BMP180;7086;48.116;11.580;2023-06-14T05:20:24;94950.00;;;19.00
14023;BMP180;7086;48.116;11.580;2023-06-14T05:22:52;94951.00;;;19.00
14023;BMP180;7086;48.116;11.580;2023-06-14T05:25:20;94950.00;;;19.10
14023;BMP180;7086;48.116;11.580;2023-06-14T05:27:47;94957.00;;;19.30
14023;BMP180;7086;48.116;11.580;2023-06-14T05:30:15;94958.00;;;19.60
14023;BMP180;7086;48.116;11.580;2023-06-14T05:32:42;94945.00;;;20.10
14023;BMP180;7086;48.116;11.580;2023-06-14T05:35:09;94953.00;;;20.50
14023;BMP180;7086;48.116;11.580;2023-06-14T05:37:36;94955.00;;;21.10
14023;BMP180;7086;48.116;11.580;2023-06-14T05:40:03;94957.00;;;21.80
14023;BMP180;7086;48.116;11.580;2023-06-14T05:42:33;94959.00;;;22.30
14023;BMP180;7086;48.116;11.580;2023-06-14T05:45:00;94958.00;;;23.10
14023;BMP180;7086;48.116;11.580;2023-06-14T05:47:26;94934.00;;;23.70
14023;BMP180;7086;48.116;11.580;2023-06-14T05:49:53;94956.00;;;24.40
14023;BMP180;7086;48.116;11.580;2023-06-14T05:52:20;94958.00;;;25.00
14023;BMP180;7086;48.116;11.580;2023-06-14T05:54:47;94964.00;;;25.50
14023;BMP180;7086;48.116;11.580;2023-06-14T05:57:14;94959.00;;;25.90
14023;BMP180;7086;48.116;11.580;2023-06-14T05:59:42;94958.00;;;26.20
14023;BMP180;7086;48.116;11.580;2023-06-14T06:02:09;94957.00;;;26.40
14023;BMP180;7086;48.116;11.580;2023-06-14T06:04:36;94955.00;;;26.50
14023;BMP180;7086;48.116;11.580;2023-06-14T06:07:03;94958.00;;;26.70
14023;BMP180;7086;48.116;11.580;2023-06-14T06:09:30;94959.00;;;26.90
14023;BMP180;7086;48.116;11.580;2023-06-14T06:11:57;94966.00;;;27.10
14023;BMP180;7086;48.116;11.580;2023-06-14T06:14:24;94974.00;;;27.20
14023;BMP180;7086;48.116;11.580;2023-06-14T06:16:53;94981.00;;;27.40
14023;BMP180;7086;48.116;11.580;2023-06-14T06:19:20;94988.00;;;27.60
14023;BMP180;7086;48.116;11.580;2023-06-14T06:21:47;94980.00;;;27.70
14023;BMP180;7086;48.116;11.580;2023-06-14T06:24:14;94983.00;;;27.90
14023;BMP180;7086;48.116;11.580;2023-06-14T06:26:41;94986.00;;;28.20
14023;BMP180;7086;48.116;11.580;2023-06-14T06:29:07;94988.00;;;28.40
14023;BMP180;7086;48.116;11.580;2023-06-14T06:31:34;94989.00;;;28.70
14023;BMP180;7086;48.116;11.580;2023-06-14T06:34:02;94993.00;;;28.90
14023;BMP180;7086;48.116;11.580;2023-06-14T06:36:29;94991.00;;;29.20
14023;BMP180;7086;48.116;11.580;2023-06-14T06:38:56;94990.00;;;29.40
14023;BMP180;7086;48.116;11.580;2023-06-14T06:41:23;94979.00;;;29.60
14023;BMP180;7086;48.116;11.580;2023-06-14T06:43:49;94995.00;;;29.80
14023;BMP180;7086;48.116;11.580;2023-06-14T06:46:16;94992.00;;;30.00
14023;BMP180;7086;48.116;11.580;2023-06-14T06:48:44;95007.00;;;30.20
14023;BMP180;7086;48.116;11.580;2023-06-14T06:51:12;95000.00;;;30.30
14023;BMP180;7086;48.116;11.580;2023-06-14T06:53:41;95005.00;;;30.40
14023;BMP180;7086;48.116;11.580;2023-06-14T06:56:08;94999.00;;;30.60
14023;BMP180;7086;48.116;11.580;2023-06-14T06:58:35;95008.00;;;30.80
14023;BMP180;7086;48.116;11.580;2023-06-14T07:01:02;95011.00;;;30.90
14023;BMP180;7086;48.116;11.580;2023-06-14T07:03:28;94994.00;;;31.00
14023;BMP180;7086;48.116;11.580;2023-06-14T07:05:55;95001.00;;;31.20
14023;BMP180;7086;48.116;11.580;2023-06-14T07:08:23;94994.00;;;31.40
14023;BMP180;7086;48.116;11.580;2023-06-14T07:10:50;95002.00;;;31.50
14023;BMP180;7086;48.116;11.580;2023-06-14T07:13:17;95009.00;;;31.60
14023;BMP180;7086;48.116;11.580;2023-06-14T07:15:44;95008.00;;;31.50
14023;BMP180;7086;48.116;11.580;2023-06-14T07:18:11;95018.00;;;31.50
14023;BMP180;7086;48.116;11.580;2023-06-14T07:20:38;94991.00;;;31.60
14023;BMP180;7086;48.116;11.580;2023-06-14T07:23:05;95011.00;;;31.70
14023;BMP180;7086;48.116;11.580;2023-06-14T07:25:34;95010.00;;;31.80
14023;BMP180;7086;48.116;11.580;2023-06-14T07:28:00;95027.00;;;31.80
14023;BMP180;7086;48.116;11.580;2023-06-14T07:30:27;95026.00;;;31.70
14023;BMP180;7086;48.116;11.580;2023-06-14T07:32:55;95019.00;;;31.70
14023;BMP180;7086;48.116;11.580;2023-06-14T07:35:22;95036.00;;;31.70
14023;BMP180;7086;48.116;11.580;2023-06-14T07:37:49;95031.00;;;31.80
14023;BMP180;7086;48.116;11.580;2023-06-14T07:40:16;95035.00;;;31.90
14023;BMP180;7086;48.116;11.580;2023-06-14T07:42:44;95028.00;;;31.90
14023;BMP180;7086;48.116;11.580;2023-06-14T07:45:13;95030.00;;;32.00
14023;BMP180;7086;48.116;11.580;2023-06-14T07:47:40;95030.00;;;32.00
14023;BMP180;7086;48.116;11.580;2023-06-14T07:50:07;95035.00;;;32.10
14023;BMP180;7086;48.116;11.580;2023-06-14T07:52:34;95045.00;;;32.10
14023;BMP180;7086;48.116;11.580;2023-06-14T07:55:01;95035.00;;;32.20
14023;BMP180;7086;48.116;11.580;2023-06-14T07:57:27;95035.00;;;32.30
14023;BMP180;7086;48.116;11.580;2023-06-14T07:59:55;95041.00;;;32.30
14023;BMP180;7086;48.116;11.580;2023-06-14T08:02:22;95032.00;;;32.20
14023;BMP180;7086;48.116;11.580;2023-06-14T08:04:49;95032.00;;;32.10
14023;BMP180;7086;48.116;11.580;2023-06-14T08:07:16;95031.00;;;31.90
14023;BMP180;7086;48.116;11.580;2023-06-14T08:09:42;95035.00;;;31.90
14023;BMP180;7086;48.116;11.580;2023-06-14T08:12:09;95034.00;;;31.90
14023;BMP180;7086;48.116;11.580;2023-06-14T08:14:36;95035.00;;;32.00
14023;BMP180;7086;48.116;11.580;2023-06-14T08:17:05;95037.00;;;32.00
14023;BMP180;7086;48.116;11.580;2023-06-14T08:19:31;95028.00;;;32.00
14023;BMP180;7086;48.116;11.580;2023-06-14T08:21:58;95030.00;;;32.20
14023;BMP180;7086;48.116;11.580;2023-06-14T08:24:25;95042.00;;;32.20
14023;BMP180;7086;48.116;11.580;2023-06-14T08:26:53;95038.00;;;32.30
14023;BMP180;7086;48.116;11.580;2023-06-14T08:29:20;95047.00;;;32.50
14023;BMP180;7086;48.116;11.580;2023-06-14T08:31:47;95052.00;;;32.60
14023;BMP180;7086;48.116;11.580;2023-06-14T08:34:15;95053.00;;;32.80
14023;BMP180;7086;48.116;11.580;2023-06-14T08:36:41;95050.00;;;33.10
14023;BMP180;7086;48.116;11.580;2023-06-14T08:39:08;95050.00;;;33.30
14023;BMP180;7086;48.116;11.580;2023-06-14T08:41:35;95053.00;;;33.40
14023;BMP180;7086;48.116;11.580;2023-06-14T08:44:02;95052.00;;;33.40
14023;BMP180;7086;48.116;11.580;2023-06-14T08:46:32;95059.00;;;33.30
14023;BMP180;7086;48.116;11.580;2023-06-14T08:48:59;95056.00;;;33.30
14023;BMP180;7086;48.116;11.580;2023-06-14T08:51:29;95055.00;;;33.30
14023;BMP180;7086;48.116;11.580;2023-06-14T08:53:59;95061.00;;;33.50
14023;BMP180;7086;48.116;11.580;2023-06-14T08:56:27;95057.00;;;33.60
14023;BMP180;7086;48.116;11.580;2023-06-14T08:58:55;95044.00;;;33.70
14023;BMP180;7086;48.116;11.580;2023-06-14T09:01:22;95052.00;;;33.90
14023;BMP180;7086;48.116;11.580;2023-06-14T09:03:49;95057.00;;;34.10
14023;BMP180;7086;48.116;11.580;2023-06-14T09:06:17;95028.00;;;34.30
14023;BMP180;7086;48.116;11.580;2023-06-14T09:08:46;95054.00;;;34.30
14023;BMP180;7086;48.116;11.580;2023-06-14T09:11:15;95034.00;;;34.30
14023;BMP180;7086;48.116;11.580;2023-06-14T09:13:44;95056.00;;;34.20
14023;BMP180;7086;48.116;11.580;2023-06-14T09:16:12;95040.00;;;34.10
14023;BMP180;7086;48.116;11.580;2023-06-14T09:18:40;95058.00;;;34.00
14023;BMP180;7086;48.116;11.580;2023-06-14T09:21:09;95058.00;;;33.80
14023;BMP180;7086;48.116;11.580;2023-06-14T09:23:37;95058.00;;;33.50
14023;BMP180;7086;48.116;11.580;2023-06-14T09:26:10;95065.00;;;33.40
14023;BMP180;7086;48.116;11.580;2023-06-14T09:28:41;95056.00;;;33.50
14023;BMP180;7086;48.116;11.580;2023-06-14T09:31:08;95055.00;;;33.70
14023;BMP180;7086;48.116;11.580;2023-06-14T09:33:35;95063.00;;;33.70
14023;BMP180;7086;48.116;11.580;2023-06-14T09:36:03;95060.00;;;33.70
14023;BMP180;7086;48.116;11.580;2023-06-14T09:38:30;95075.00;;;33.60
14023;BMP180;7086;48.116;11.580;2023-06-14T09:40:58;95073.00;;;33.50
14023;BMP180;7086;48.116;11.580;2023-06-14T09:43:27;95071.00;;;33.20
14023;BMP180;7086;48.116;11.580;2023-06-14T09:45:54;95073.00;;;32.90
14023;BMP180;7086;48.116;11.580;2023-06-14T09:48:21;95074.00;;;32.50
14023;BMP180;7086;48.116;11.580;2023-06-14T09:50:50;95071.00;;;32.10
14023;BMP180;7086;48.116;11.580;2023-06-14T09:53:21;95078.00;;;31.90
14023;BMP180;7086;48.116;11.580;2023-06-14T09:55:49;95074.00;;;31.90
14023;BMP180;7086;48.116;11.580;2023-06-14T09:58:19;95073.00;;;32.00
14023;BMP180;7086;48.116;11.580;2023-06-14T10:00:50;95066.00;;;32.20
14023;BMP180;7086;48.116;11.580;2023-06-14T10:03:21;95054.00;;;32.30
14023;BMP180;7086;48.116;11.580;2023-06-14T10:05:51;95071.00;;;32.10
14023;BMP180;7086;48.116;11.580;2023-06-14T10:08:19;95075.00;;;31.90
14023;BMP180;7086;48.116;11.580;2023-06-14T10:10:46;95067.00;;;31.90
14023;BMP180;7086;48.116;11.580;2023-06-14T10:13:14;95059.00;;;32.10
14023;BMP180;7086;48.116;11.580;2023-06-14T10:15:54;95063.00;;;32.30
14023;BMP180;7086;48.116;11.580;2023-06-14T10:18:30;95060.00;;;32.40
14023;BMP180;7086;48.116;11.580;2023-06-14T10:21:04;95062.00;;;32.50
14023;BMP180;7086;48.116;11.580;2023-06-14T10:23:38;95064.00;;;32.30
14023;BMP180;7086;48.116;11.580;2023-06-14T10:26:07;95071.00;;;32.10
14023;BMP180;7086;48.116;11.580;2023-06-14T10:28:37;95069.00;;;32.20
14023;BMP180;7086;48.116;11.580;2023-06-14T10:31:05;95050.00;;;32.40
14023;BMP180;7086;48.116;11.580;2023-06-14T10:33:34;95063.00;;;32.50
14023;BMP180;7086;48.116;11.580;2023-06-14T10:36:24;95064.00;;;32.60
14023;BMP180;7086;48.116;11.580;2023-06-14T10:39:01;95064.00;;;32.40
14023;BMP180;7086;48.116;11.580;2023-06-14T10:41:31;95064.00;;;32.20
14023;BMP180;7086;48.116;11.580;2023-06-14T10:44:38;95061.00;;;31.70
14023;BMP180;7086;48.116;11.580;2023-06-14T10:47:10;95067.00;;;31.50
14023;BMP180;7086;48.116;11.580;2023-06-14T10:49:41;95065.00;;;31.60
14023;BMP180;7086;48.116;11.580;2023-06-14T10:52:09;95063.00;;;31.80
14023;BMP180;7086;48.116;11.580;2023-06-14T10:54:59;95050.00;;;31.80
14023;BMP180;7086;48.116;11.580;2023-06-14T10:57:27;95059.00;;;31.50
14023;BMP180;7086;48.116;11.580;2023-06-14T10:59:54;95071.00;;;31.00
14023;BMP180;7086;48.116;11.580;2023-06-14T11:02:45;95047.00;;;30.40
14023;BMP180;7086;48.116;11.580;2023-06-14T11:05:15;95063.00;;;30.00
14023;BMP180;7086;48.116;11.580;2023-06-14T11:07:51;95065.00;;;29.90
14023;BMP180;7086;48.116;11.580;2023-06-14T11:10:34;95059.00;;;30.00
14023;BMP180;7086;48.116;11.580;2023-06-14T11:13:02;95055.00;;;30.10
14023;BMP180;7086;48.116;11.580;2023-06-14T11:15:29;95064.00;;;30.10
14023;BMP180;7086;48.116;11.580;2023-06-14T11:18:00;95057.00;;;30.20
14023;BMP180;7086;48.116;11.580;2023-06-14T11:20:30;95075.00;;;30.20
14023;BMP180;7086;48.116;11.580;2023-06-14T11:22:57;95064.00;;;30.30
14023;BMP180;7086;48.116;11.580;2023-06-14T11:25:25;95063.00;;;30.50
14023;BMP180;7086;48.116;11.580;2023-06-14T11:27:53;95057.00;;;30.60
14023;BMP180;7086;48.116;11.580;2023-06-14T11:30:20;95035.00;;;30.50
14023;BMP180;7086;48.116;11.580;2023-06-14T11:32:48;95044.00;;;30.30
14023;BMP180;7086;48.116;11.580;2023-06-14T11:35:15;95044.00;;;30.10
14023;BMP180;7086;48.116;11.580;2023-06-14T11:37:44;95035.00;;;29.70
14023;BMP180;7086;48.116;11.580;2023-06-14T11:40:12;95044.00;;;29.40
14023;BMP180;7086;48.116;11.580;2023-06-14T11:42:40;95045.00;;;29.10
14023;BMP180;7086;48.116;11.580;2023-06-14T11:45:09;95038.00;;;28.90
14023;BMP180;7086;48.116;11.580;2023-06-14T11:47:37;95048.00;;;28.70
14023;BMP180;7086;48.116;11.580;2023-06-14T11:50:05;95024.00;;;28.50
14023;BMP180;7086;48.116;11.580;2023-06-14T11:52:34;95037.00;;;28.30
14023;BMP180;7086;48.116;11.580;2023-06-14T11:55:03;95027.00;;;28.30
14023;BMP180;7086;48.116;11.580;2023-06-14T11:57:33;95048.00;;;28.20
14023;BMP180;7086;48.116;11.580;2023-06-14T12:00:03;95036.00;;;28.20
14023;BMP180;7086;48.116;11.580;2023-06-14T12:02:33;95041.00;;;28.20
14023;BMP180;7086;48.116;11.580;2023-06-14T12:05:04;95026.00;;;28.20
14023;BMP180;7086;48.116;11.580;2023-06-14T12:07:33;95044.00;;;28.20
14023;BMP180;7086;48.116;11.580;2023-06-14T12:10:08;95042.00;;;28.20
14023;BMP180;7086;48.116;11.580;2023-06-14T12:12:37;95046.00;;;28.20
14023;BMP180;7086;48.116;11.580;2023-06-14T12:15:05;95025.00;;;28.30
14023;BMP180;7086;48.116;11.580;2023-06-14T12:17:33;95036.00;;;28.30
14023;BMP180;7086;48.116;11.580;2023-06-14T12:20:05;95051.00;;;28.30
14023;BMP180;7086;48.116;11.580;2023-06-14T12:22:33;95048.00;;;28.30
14023;BMP180;7086;48.116;11.580;2023-06-14T12:25:00;95051.00;;;28.20
14023;BMP180;7086;48.116;11.580;2023-06-14T12:27:30;95034.00;;;28.30
14023;BMP180;7086;48.116;11.580;2023-06-14T12:30:00;95040.00;;;28.30
14023;BMP180;7086;48.116;11.580;2023-06-14T12:32:28;95028.00;;;28.40
14023;BMP180;7086;48.116;11.580;2023-06-14T12:34:55;95020.00;;;28.40
14023;BMP180;7086;48.116;11.580;2023-06-14T12:37:22;95041.00;;;28.40
14023;BMP180;7086;48.116;11.580;2023-06-14T12:39:49;95015.00;;;28.50
14023;BMP180;7086;48.116;11.580;2023-06-14T12:42:17;95041.00;;;28.40
14023;BMP180;7086;48.116;11.580;2023-06-14T12:44:45;95039.00;;;28.30
14023;BMP180;7086;48.116;11.580;2023-06-14T12:47:12;95053.00;;;28.20
14023;BMP180;7086;48.116;11.580;2023-06-14T12:49:39;95048.00;;;28.10
14023;BMP180;7086;48.116;11.580;2023-06-14T12:52:08;95042.00;;;28.00
14023;BMP180;7086;48.116;11.580;2023-06-14T12:54:35;95037.00;;;27.90
14023;BMP180;7086;48.116;11.580;2023-06-14T12:57:02;95053.00;;;27.80
14023;BMP180;7086;48.116;11.580;2023-06-14T12:59:29;95041.00;;;27.70
14023;BMP180;7086;48.116;11.580;2023-06-14T13:02:10;95028.00;;;27.70
14023;BMP180;7086;48.116;11.580;2023-06-14T13:04:37;95037.00;;;27.70
14023;BMP180;7086;48.116;11.580;2023-06-14T13:07:05;95051.00;;;27.70
14023;BMP180;7086;48.116;11.580;2023-06-14T13:09:32;95052.00;;;27.80
14023;BMP180;7086;48.116;11.580;2023-06-14T13:11:59;95047.00;;;27.80
14023;BMP180;7086;48.116;11.580;2023-06-14T13:14:27;95046.00;;;27.80
14023;BMP180;7086;48.116;11.580;2023-06-14T13:16:53;95036.00;;;27.80
14023;BMP180;7086;48.116;11.580;2023-06-14T13:19:22;95043.00;;;27.80
14023;BMP180;7086;48.116;11.580;2023-06-14T13:21:48;95043.00;;;27.80
14023;BMP180;7086;48.116;11.580;2023-06-14T13:24:15;95038.00;;;27.90
14023;BMP180;7086;48.116;11.580;2023-06-14T13:26:42;95035.00;;;28.00
14023;BMP180;7086;48.116;11.580;2023-06-14T13:29:09;95035.00;;;28.00
14023;BMP180;7086;48.116;11.580;2023-06-14T13:31:36;95038.00;;;28.10
14023;BMP180;7086;48.116;11.580;2023-06-14T13:34:03;95031.00;;;28.20
14023;BMP180;7086;48.116;11.580;2023-06-14T13:36:32;95025.00;;;28.30
14023;BMP180;7086;48.116;11.580;2023-06-14T13:38:59;95036.00;;;28.40
14023;BMP180;7086;48.116;11.580;2023-06-14T13:41:26;95034.00;;;28.50
14023;BMP180;7086;48.116;11.580;2023-06-14T13:43:57;95038.00;;;28.50
14023;BMP180;7086;48.116;11.580;2023-06-14T13:46:24;95033.00;;;28.50
14023;BMP180;7086;48.116;11.580;2023-06-14T13:48:51;95029.00;;;28.50
14023;BMP180;7086;48.116;11.580;2023-06-14T13:51:18;95031.00;;;28.30
14023;BMP180;7086;48.116;11.580;2023-06-14T13:53:47;95040.00;;;28.40
14023;BMP180;7086;48.116;11.580;2023-06-14T13:56:14;95025.00;;;28.40
14023;BMP180;7086;48.116;11.580;2023-06-14T13:58:41;95028.00;;;28.40
14023;BMP180;7086;48.116;11.580;2023-06-14T14:01:08;95035.00;;;28.30
14023;BMP180;7086;48.116;11.580;2023-06-14T14:03:35;95027.00;;;28.30
14023;BMP180;7086;48.116;11.580;2023-06-14T14:06:03;95033.00;;;28.30
14023;BMP180;7086;48.116;11.580;2023-06-14T14:08:31;95035.00;;;28.20
14023;BMP180;7086;48.116;11.580;2023-06-14T14:10:59;95024.00;;;28.20
14023;BMP180;7086;48.116;11.580;2023-06-14T14:13:26;95028.00;;;28.20
14023;BMP180;7086;48.116;11.580;2023-06-14T14:15:53;95019.00;;;28.30